createdAt,value
2022-08-05T00:00:16.702Z,100192.03
2022-08-05T00:02:50.882Z,100197.56
2022-08-05T00:06:03.178Z,100187.88
2022-08-05T00:08:32.740Z,100188.41
2022-08-05T00:11:00.686Z,100193.25
2022-08-05T00:13:38.906Z,100193.50
2022-08-05T00:16:08.757Z,100192.91
2022-08-05T00:18:38.002Z,100196.00
2022-08-05T00:21:06.467Z,100185.56
2022-08-05T00:23:45.850Z,100194.53
2022-08-05T00:26:20.938Z,100192.84
2022-08-05T00:28:50.536Z,100196.66
2022-08-05T00:31:54.184Z,100186.38
2022-08-05T00:34:53.196Z,100189.22
2022-08-05T00:37:13.232Z,100186.75
2022-08-05T00:39:44.263Z,100179.66
2022-08-05T00:42:36.646Z,100184.06
2022-08-05T00:45:05.467Z,100183.13
2022-08-05T00:47:56.322Z,100181.72
2022-08-05T00:50:25.309Z,100177.53
2022-08-05T00:52:55.169Z,100174.38
2022-08-05T00:55:23.297Z,100170.22
2022-08-05T00:58:11.108Z,100180.19
2022-08-05T01:00:39.654Z,100176.88
2022-08-05T01:03:07.992Z,100172.72
2022-08-05T01:05:35.430Z,100180.84
2022-08-05T01:08:42.156Z,100178.50
2022-08-05T01:10:58.095Z,100178.66
2022-08-05T01:14:04.227Z,100173.97
2022-08-05T01:16:48.729Z,100180.50
2022-08-05T01:19:46.215Z,100173.38
2022-08-05T01:22:31.811Z,100175.34
2022-08-05T01:25:19.893Z,100183.72
2022-08-05T01:27:55.539Z,100181.25
2022-08-05T01:30:34.121Z,100186.19
2022-08-05T01:33:08.056Z,100178.19
2022-08-05T01:35:50.989Z,100180.06
2022-08-05T01:38:27.467Z,100179.69
2022-08-05T01:40:59.686Z,100184.28
2022-08-05T01:43:28.081Z,100190.69
2022-08-05T01:45:57.043Z,100182.50
2022-08-05T01:48:29.851Z,100183.28
2022-08-05T01:51:00.117Z,100192.00
2022-08-05T01:53:57.246Z,100184.75
2022-08-05T01:58:11.651Z,100188.69
2022-08-05T01:59:20.118Z,100190.81
2022-08-05T02:01:48.680Z,100188.94
2022-08-05T02:04:18.396Z,100185.63
2022-08-05T02:06:45.729Z,100182.31
2022-08-05T02:09:16.470Z,100189.06
2022-08-05T02:11:52.680Z,100201.84
2022-08-05T02:14:32.402Z,100193.13
2022-08-05T02:17:04.059Z,100199.84
2022-08-05T02:19:36.371Z,100182.72
2022-08-05T02:22:25.339Z,100184.66
2022-08-05T02:24:55.865Z,100188.81
2022-08-05T02:27:30.151Z,100190.16
2022-08-05T02:30:12.376Z,100188.69
2022-08-05T02:32:41.635Z,100186.09
2022-08-05T02:35:13.563Z,100190.91
2022-08-05T02:37:42.770Z,100190.31
2022-08-05T02:40:16.556Z,100193.22
2022-08-05T02:42:44.788Z,100193.34
2022-08-05T02:45:21.311Z,100191.00
2022-08-05T02:48:07.091Z,100193.84
2022-08-05T02:50:43.824Z,100189.31
2022-08-05T02:53:18.675Z,100194.72
2022-08-05T02:55:52.102Z,100190.41
2022-08-05T02:58:23.277Z,100192.38
2022-08-05T03:00:58.984Z,100192.09
2022-08-05T03:03:27.893Z,100196.25
2022-08-05T03:06:54.728Z,100197.13
2022-08-05T03:08:52.174Z,100190.13
2022-08-05T03:11:55.561Z,100192.94
2022-08-05T03:14:08.517Z,100195.41
2022-08-05T03:16:40.675Z,100192.31
2022-08-05T03:19:17.441Z,100192.69
2022-08-05T03:21:55.374Z,100191.94
2022-08-05T03:24:29.511Z,100191.09
2022-08-05T03:27:00.867Z,100179.53
2022-08-05T03:29:44.613Z,100190.81
2022-08-05T03:32:15.384Z,100192.53
2022-08-05T03:34:50.553Z,100199.41
2022-08-05T03:37:19.689Z,100194.25
2022-08-05T03:40:01.124Z,100196.34
2022-08-05T03:42:32.276Z,100204.53
2022-08-05T03:45:01.893Z,100205.50
2022-08-05T03:47:49.363Z,100200.00
2022-08-05T03:50:16.775Z,100203.31
2022-08-05T03:55:49.952Z,100208.72
2022-08-05T03:56:11.897Z,100216.03
2022-08-05T03:58:44.869Z,100215.84
2022-08-05T04:01:13.270Z,100210.66
2022-08-05T04:04:05.402Z,100217.16
2022-08-05T04:06:30.607Z,100214.59
2022-08-05T04:08:58.765Z,100214.09
2022-08-05T04:11:47.075Z,100217.44
2022-08-05T04:14:17.870Z,100215.84
2022-08-05T04:16:45.603Z,100213.13
2022-08-05T04:19:13.366Z,100202.94
2022-08-05T04:22:08.824Z,100209.97
2022-08-05T04:24:28.415Z,100214.72
2022-08-05T04:26:58.229Z,100215.34
2022-08-05T04:29:27.252Z,100223.69
2022-08-05T04:31:56.881Z,100213.91
2022-08-05T04:34:32.968Z,100214.41
2022-08-05T04:37:02.985Z,100206.59
2022-08-05T04:39:31.367Z,100206.09
2022-08-05T04:41:59.509Z,100206.72
2022-08-05T04:44:30.298Z,100200.94
2022-08-05T04:47:09.726Z,100209.31
2022-08-05T04:50:01.331Z,100210.28
2022-08-05T04:52:28.273Z,100211.28
2022-08-05T04:54:57.294Z,100199.63
2022-08-05T04:57:28.531Z,100207.13
2022-08-05T04:59:58.497Z,100207.47
2022-08-05T05:02:36.795Z,100211.41
2022-08-05T05:05:16.533Z,100213.44
2022-08-05T05:07:56.632Z,100211.13
2022-08-05T05:10:29.627Z,100214.66
2022-08-05T05:12:57.791Z,100214.63
2022-08-05T05:15:57.396Z,100208.44
2022-08-05T05:18:15.280Z,100210.88
2022-08-05T05:20:56.090Z,100205.19
2022-08-05T05:23:25.879Z,100201.41
2022-08-05T05:25:53.149Z,100195.69
2022-08-05T05:28:20.874Z,100202.75
2022-08-05T05:30:49.563Z,100191.72
2022-08-05T05:33:17.711Z,100196.06
2022-08-05T05:35:50.817Z,100202.41
2022-08-05T05:38:22.200Z,100196.63
2022-08-05T05:40:54.379Z,100205.06
2022-08-05T05:43:56.430Z,100196.97
2022-08-05T05:46:17.306Z,100193.31
2022-08-05T05:48:48.323Z,100196.19
2022-08-05T05:51:22.989Z,100201.22
2022-08-05T05:53:57.392Z,100206.13
2022-08-05T05:56:31.507Z,100203.00
2022-08-05T05:59:03.452Z,100204.16
2022-08-05T06:01:38.026Z,100205.16
2022-08-05T06:04:07.557Z,100201.63
2022-08-05T06:06:35.503Z,100198.31
2022-08-05T06:09:04.220Z,100194.47
2022-08-05T06:11:32.025Z,100205.75
2022-08-05T06:14:00.375Z,100203.47
2022-08-05T06:16:36.932Z,100198.88
2022-08-05T06:19:07.321Z,100201.28
2022-08-05T06:24:12.050Z,100184.06
2022-08-05T06:26:51.241Z,100186.16
2022-08-05T06:29:23.604Z,100189.25
2022-08-05T06:32:24.836Z,100191.84
2022-08-05T06:34:56.815Z,100197.78
2022-08-05T06:37:56.355Z,100203.25
2022-08-05T06:40:13.978Z,100196.38
2022-08-05T06:42:45.852Z,100194.28
2022-08-05T06:45:20.679Z,100197.94
2022-08-05T06:48:36.593Z,100201.28
2022-08-05T06:50:36.003Z,100200.72
2022-08-05T06:53:11.244Z,100196.91
2022-08-05T06:55:42.007Z,100194.44
2022-08-05T06:58:29.928Z,100202.75
2022-08-05T07:01:01.172Z,100195.34
2022-08-05T07:03:32.722Z,100200.09
2022-08-05T07:06:05.818Z,100189.72
2022-08-05T07:08:47.793Z,100200.69
2022-08-05T07:11:22.183Z,100198.19
2022-08-05T07:14:20.630Z,100202.47
2022-08-05T07:18:00.693Z,100195.69
2022-08-05T07:22:35.921Z,100187.91
2022-08-05T07:25:23.090Z,100193.03
2022-08-05T07:27:57.228Z,100182.13
2022-08-05T07:30:34.724Z,100186.91
2022-08-05T07:33:16.587Z,100186.88
2022-08-05T07:36:05.387Z,100181.81
2022-08-05T07:38:43.694Z,100181.94
2022-08-05T07:42:13.475Z,100182.09
2022-08-05T07:44:18.653Z,100174.22
2022-08-05T07:46:49.259Z,100168.88
2022-08-05T07:49:18.133Z,100182.22
2022-08-05T07:51:54.038Z,100178.19
2022-08-05T07:54:30.690Z,100174.00
2022-08-05T07:57:14.675Z,100175.69
2022-08-05T07:59:46.899Z,100177.31
2022-08-05T08:02:17.558Z,100181.34
2022-08-05T08:04:46.361Z,100181.41
2022-08-05T08:07:14.092Z,100175.41
2022-08-05T08:09:43.016Z,100172.09
2022-08-05T08:12:29.671Z,100177.31
2022-08-05T08:15:02.202Z,100173.81
2022-08-05T08:17:31.160Z,100178.50
2022-08-05T08:20:43.428Z,100177.84
2022-08-05T08:22:50.970Z,100173.25
2022-08-05T08:25:26.378Z,100169.69
2022-08-05T08:28:03.223Z,100171.97
2022-08-05T08:30:40.783Z,100171.31
2022-08-05T08:33:15.344Z,100171.66
2022-08-05T08:35:52.957Z,100169.97
2022-08-05T08:38:35.653Z,100173.06
2022-08-05T08:41:07.349Z,100173.53
2022-08-05T08:45:19.418Z,100165.78
2022-08-05T08:46:24.029Z,100166.41
2022-08-05T08:49:06.077Z,100164.53
2022-08-05T08:52:02.929Z,100162.88
2022-08-05T08:54:30.614Z,100165.06
2022-08-05T08:56:59.597Z,100159.41
2022-08-05T08:59:27.632Z,100159.22
2022-08-05T09:02:02.180Z,100152.00
2022-08-05T09:04:30.464Z,100140.06
2022-08-05T09:06:58.428Z,100136.72
2022-08-05T09:09:32.459Z,100139.59
2022-08-05T09:12:19.802Z,100137.53
2022-08-05T09:14:57.231Z,100127.88
2022-08-05T09:17:40.639Z,100127.47
2022-08-05T09:20:09.528Z,100123.75
2022-08-05T09:22:55.520Z,100120.66
2022-08-05T09:26:03.111Z,100111.63
2022-08-05T09:28:32.524Z,100118.84
2022-08-05T09:32:38.742Z,100118.84
2022-08-05T09:34:10.733Z,100109.16
2022-08-05T09:36:56.369Z,100108.56
2022-08-05T09:39:27.805Z,100107.50
2022-08-05T09:42:23.090Z,100107.59
2022-08-05T09:44:57.153Z,100105.06
2022-08-05T09:47:36.559Z,100102.13
2022-08-05T09:50:37.684Z,100097.03
2022-08-05T09:53:06.272Z,100092.56
2022-08-05T09:55:58.062Z,100095.34
2022-08-05T09:58:24.622Z,100094.13
2022-08-05T10:01:01.001Z,100084.75
2022-08-05T10:03:56.533Z,100086.44
2022-08-05T10:06:19.417Z,100086.41
2022-08-05T10:08:53.791Z,100085.16
2022-08-05T10:11:21.446Z,100067.53
2022-08-05T10:13:54.511Z,100076.66
2022-08-05T10:16:31.093Z,100079.41
2022-08-05T10:18:59.934Z,100081.75
2022-08-05T10:21:35.269Z,100072.63
2022-08-05T10:24:10.727Z,100070.06
2022-08-05T10:26:49.115Z,100069.03
2022-08-05T10:30:06.065Z,100061.97
2022-08-05T10:32:53.603Z,100060.44
2022-08-05T10:35:01.098Z,100050.59
2022-08-05T10:37:40.012Z,100051.75
2022-08-05T10:40:18.962Z,100046.69
2022-08-05T10:42:50.226Z,100043.28
2022-08-05T10:45:41.834Z,100046.59
2022-08-05T10:48:29.848Z,100038.56
2022-08-05T10:51:21.913Z,100037.50
2022-08-05T10:54:23.058Z,100031.00
2022-08-05T10:56:52.810Z,100029.66
2022-08-05T11:00:02.546Z,100028.53
2022-08-05T11:02:37.821Z,100021.47
2022-08-05T11:05:07.201Z,100014.84
2022-08-05T11:08:02.405Z,100013.16
2022-08-05T11:10:33.154Z,100010.78
2022-08-05T11:13:01.165Z,100013.38
2022-08-05T11:15:59.121Z,100004.84
2022-08-05T11:18:24.591Z,100009.06
2022-08-05T11:20:52.339Z,100007.34
2022-08-05T11:23:33.422Z,100003.44
2022-08-05T11:26:05.670Z,99994.06
2022-08-05T11:28:36.206Z,99997.13
2022-08-05T11:31:06.421Z,99989.91
2022-08-05T11:33:46.459Z,99992.91
2022-08-05T11:36:14.964Z,99988.44
2022-08-05T11:38:46.117Z,99986.56
2022-08-05T11:41:58.175Z,99980.41
2022-08-05T11:44:21.748Z,99976.47
2022-08-05T11:47:14.149Z,99974.97
2022-08-05T11:49:49.843Z,99964.31
2022-08-05T11:52:29.426Z,99959.88
2022-08-05T11:54:58.165Z,99966.53
2022-08-05T11:58:08.046Z,99952.31
2022-08-05T12:00:29.210Z,99951.50
2022-08-05T12:02:57.846Z,99953.31
2022-08-05T12:05:32.295Z,99957.94
2022-08-05T12:08:10.137Z,99953.94
2022-08-05T12:10:45.302Z,99957.25
2022-08-05T12:13:16.955Z,99954.69
2022-08-05T12:15:49.766Z,99948.09
2022-08-05T12:18:18.242Z,99945.78
2022-08-05T12:20:47.962Z,99937.88
2022-08-05T12:23:16.659Z,99943.78
2022-08-05T12:25:53.858Z,99938.56
2022-08-05T12:28:31.186Z,99938.09
2022-08-05T12:31:02.389Z,99926.94
2022-08-05T12:33:36.709Z,99940.19
2022-08-05T12:36:07.008Z,99937.63
2022-08-05T12:38:36.990Z,99936.69
2022-08-05T12:41:12.296Z,99930.41
2022-08-05T12:43:50.448Z,99923.34
2022-08-05T12:46:26.440Z,99929.47
2022-08-05T12:49:00.599Z,99928.28
2022-08-05T12:52:13.013Z,99922.16
2022-08-05T12:54:29.375Z,99914.47
2022-08-05T12:56:57.898Z,99910.09
2022-08-05T12:59:46.679Z,99911.13
2022-08-05T13:02:16.471Z,99905.75
2022-08-05T13:04:52.514Z,99901.44
2022-08-05T13:07:56.081Z,99893.88
2022-08-05T13:10:11.802Z,99900.53
2022-08-05T13:12:42.712Z,99887.41
2022-08-05T13:15:42.146Z,99883.47
2022-08-05T13:18:19.756Z,99883.97
2022-08-05T13:20:49.046Z,99881.66
2022-08-05T13:23:22.040Z,99872.75
2022-08-05T13:25:59.627Z,99874.44
2022-08-05T13:28:28.927Z,99870.44
2022-08-05T13:30:57.190Z,99871.53
2022-08-05T13:34:22.648Z,99874.22
2022-08-05T13:36:14.427Z,99873.59
2022-08-05T13:38:42.943Z,99862.50
2022-08-05T13:41:11.339Z,99862.13
2022-08-05T13:43:44.303Z,99863.13
2022-08-05T13:46:13.818Z,99859.16
2022-08-05T13:48:58.323Z,99863.00
2022-08-05T13:51:28.766Z,99862.75
2022-08-05T13:53:56.533Z,99859.63
2022-08-05T13:56:26.407Z,99846.75
2022-08-05T13:58:53.985Z,99843.72
2022-08-05T14:01:27.408Z,99849.25
2022-08-05T14:04:22.352Z,99850.91
2022-08-05T14:07:11.984Z,99848.66
2022-08-05T14:09:46.154Z,99834.56
2022-08-05T14:12:17.540Z,99835.63
2022-08-05T14:14:59.250Z,99830.44
2022-08-05T14:17:26.643Z,99836.72
2022-08-05T14:20:00.878Z,99824.81
2022-08-05T14:22:30.505Z,99829.31
2022-08-05T14:25:02.155Z,99839.66
2022-08-05T14:27:33.531Z,99832.94
2022-08-05T14:30:01.835Z,99843.03
2022-08-05T14:32:31.852Z,99821.59
2022-08-05T14:34:59.353Z,99819.91
2022-08-05T14:37:45.322Z,99816.41
2022-08-05T14:40:17.052Z,99813.25
2022-08-05T14:42:44.466Z,99809.16
2022-08-05T14:45:11.737Z,99808.81
2022-08-05T14:48:02.588Z,99809.19
2022-08-05T14:50:26.293Z,99809.19
2022-08-05T14:52:58.485Z,99814.47
2022-08-05T14:55:28.728Z,99816.66
2022-08-05T14:58:12.225Z,99811.72
2022-08-05T15:00:59.664Z,99798.13
2022-08-05T15:03:32.997Z,99802.22
2022-08-05T15:06:08.410Z,99791.13
2022-08-05T15:08:59.517Z,99796.56
2022-08-05T15:11:51.844Z,99805.25
2022-08-05T15:14:33.425Z,99800.53
2022-08-05T15:17:04.214Z,99802.06
2022-08-05T15:19:32.098Z,99802.41
2022-08-05T15:22:01.295Z,99800.25
2022-08-05T15:24:29.502Z,99794.72
2022-08-05T15:26:57.137Z,99795.56
2022-08-05T15:29:30.092Z,99791.63
2022-08-05T15:32:03.166Z,99801.97
2022-08-05T15:34:32.166Z,99792.47
2022-08-05T15:37:06.256Z,99785.84
2022-08-05T15:41:02.714Z,99795.25
2022-08-05T15:42:53.705Z,99789.31
2022-08-05T15:45:16.503Z,99783.47
2022-08-05T15:47:46.384Z,99786.97
2022-08-05T15:50:16.012Z,99782.25
2022-08-05T15:52:52.709Z,99780.34
2022-08-05T15:55:24.574Z,99778.66
2022-08-05T15:57:52.611Z,99775.16
2022-08-05T16:00:32.759Z,99774.16
2022-08-05T16:03:08.009Z,99780.06
2022-08-05T16:05:35.372Z,99770.59
2022-08-05T16:08:06.330Z,99774.06
2022-08-05T16:10:33.646Z,99773.00
2022-08-05T16:13:00.926Z,99775.22
2022-08-05T16:15:32.255Z,99767.72
2022-08-05T16:18:00.074Z,99769.53
2022-08-05T16:20:27.931Z,99766.09
2022-08-05T16:22:55.430Z,99765.22
2022-08-05T16:25:34.180Z,99764.00
2022-08-05T16:28:06.537Z,99763.56
2022-08-05T16:30:37.248Z,99770.50
2022-08-05T16:33:04.570Z,99769.16
2022-08-05T16:35:33.558Z,99771.88
2022-08-05T16:38:18.848Z,99762.38
2022-08-05T16:40:55.262Z,99761.31
2022-08-05T16:43:24.127Z,99762.59
2022-08-05T16:46:04.704Z,99760.28
2022-08-05T16:48:36.080Z,99763.63
2022-08-05T16:51:03.956Z,99768.69
2022-08-05T16:54:06.167Z,99766.09
2022-08-05T16:56:24.851Z,99767.38
2022-08-05T16:58:52.174Z,99771.22
2022-08-05T17:01:19.594Z,99762.50
2022-08-05T17:03:47.189Z,99768.72
2022-08-05T17:06:16.594Z,99767.22
2022-08-05T17:08:53.478Z,99764.91
2022-08-05T17:11:23.824Z,99767.16
2022-08-05T17:14:00.509Z,99778.72
2022-08-05T17:16:35.992Z,99774.97
2022-08-05T17:19:09.589Z,99767.94
2022-08-05T17:21:39.742Z,99774.00
2022-08-05T17:24:18.520Z,99782.13
2022-08-05T17:26:57.848Z,99771.91
2022-08-05T17:29:33.813Z,99776.91
2022-08-05T17:32:11.763Z,99777.31
2022-08-05T17:34:48.527Z,99776.34
2022-08-05T17:37:40.388Z,99780.31
2022-08-05T17:40:10.617Z,99776.38
2022-08-05T17:42:41.731Z,99779.59
2022-08-05T17:45:20.482Z,99777.75
2022-08-05T17:47:53.512Z,99771.22
2022-08-05T17:50:28.459Z,99772.13
2022-08-05T17:52:58.966Z,99772.16
2022-08-05T17:55:27.398Z,99779.16
2022-08-05T17:58:02.290Z,99786.81
2022-08-05T18:00:29.967Z,99780.47
2022-08-05T18:02:57.348Z,99781.31
2022-08-05T18:05:28.214Z,99780.88
2022-08-05T18:08:02.557Z,99780.88
2022-08-05T18:10:32.231Z,99785.13
2022-08-05T18:13:01.956Z,99780.66
2022-08-05T18:15:35.136Z,99788.66
2022-08-05T18:18:11.074Z,99788.81
2022-08-05T18:20:38.908Z,99786.03
2022-08-05T18:23:11.192Z,99789.78
2022-08-05T18:25:45.531Z,99793.28
2022-08-05T18:28:16.655Z,99791.97
2022-08-05T18:30:45.114Z,99788.53
2022-08-05T18:33:13.786Z,99783.41
2022-08-05T18:36:01.154Z,99792.88
2022-08-05T18:38:30.655Z,99801.00
2022-08-05T18:41:55.688Z,99797.78
2022-08-05T18:43:48.935Z,99795.13
2022-08-05T18:46:20.053Z,99799.84
2022-08-05T18:48:51.943Z,99802.88
2022-08-05T18:52:05.669Z,99800.56
2022-08-05T18:54:26.175Z,99802.25
2022-08-05T18:56:57.119Z,99811.19
2022-08-05T18:59:43.994Z,99812.88
2022-08-05T19:02:38.036Z,99817.81
2022-08-05T19:05:02.769Z,99819.84
2022-08-05T19:07:50.266Z,99815.88
2022-08-05T19:10:26.657Z,99821.66
2022-08-05T19:12:58.131Z,99819.84
2022-08-05T19:15:57.766Z,99816.38
2022-08-05T19:18:20.723Z,99816.25
2022-08-05T19:20:52.140Z,99821.59
2022-08-05T19:24:03.339Z,99822.34
2022-08-05T19:26:08.509Z,99820.75
2022-08-05T19:28:43.922Z,99821.03
2022-08-05T19:31:13.322Z,99815.44
2022-08-05T19:33:55.711Z,99818.56
2022-08-05T19:36:27.157Z,99823.06
2022-08-05T19:38:58.954Z,99826.34
2022-08-05T19:42:06.486Z,99823.28
2022-08-05T19:44:17.168Z,99820.09
2022-08-05T19:46:46.065Z,99824.88
2022-08-05T19:49:17.256Z,99824.41
2022-08-05T19:52:09.022Z,99830.22
2022-08-05T19:54:34.537Z,99828.03
2022-08-05T19:57:06.540Z,99831.34
2022-08-05T19:59:54.564Z,99831.03
2022-08-05T20:02:26.242Z,99824.78
2022-08-05T20:04:59.054Z,99832.66
2022-08-05T20:07:46.445Z,99816.16
2022-08-05T20:10:15.877Z,99830.72
2022-08-05T20:12:47.833Z,99831.59
2022-08-05T20:15:23.261Z,99835.22
2022-08-05T20:18:10.689Z,99832.53
2022-08-05T20:20:52.175Z,99826.94
2022-08-05T20:23:23.680Z,99831.59
2022-08-05T20:26:16.451Z,99826.00
2022-08-05T20:28:45.697Z,99825.38
2022-08-05T20:31:12.980Z,99827.94
2022-08-05T20:33:42.592Z,99829.69
2022-08-05T20:36:11.127Z,99837.88
2022-08-05T20:38:40.816Z,99834.13
2022-08-05T20:41:24.271Z,99835.00
2022-08-05T20:44:00.478Z,99841.16
2022-08-05T20:46:30.169Z,99829.25
2022-08-05T20:48:57.450Z,99831.81
2022-08-05T20:51:24.726Z,99828.06
2022-08-05T20:53:56.353Z,99832.00
2022-08-05T20:56:28.725Z,99825.19
2022-08-05T20:58:59.976Z,99831.16
2022-08-05T21:01:39.138Z,99828.63
2022-08-05T21:04:12.306Z,99837.16
2022-08-05T21:06:45.632Z,99833.06
2022-08-05T21:09:14.950Z,99838.81
2022-08-05T21:12:09.643Z,99833.72
2022-08-05T21:14:34.910Z,99833.56
2022-08-05T21:17:05.127Z,99834.91
2022-08-05T21:19:46.789Z,99829.09
2022-08-05T21:22:21.746Z,99835.91
2022-08-05T21:24:52.369Z,99842.53
2022-08-05T21:27:24.647Z,99837.88
2022-08-05T21:29:54.012Z,99837.72
2022-08-05T21:32:23.688Z,99846.69
2022-08-05T21:34:55.975Z,99845.66
2022-08-05T21:37:41.061Z,99844.94
2022-08-05T21:40:13.148Z,99844.22
2022-08-05T21:42:44.446Z,99845.91
2022-08-05T21:45:24.929Z,99850.13
2022-08-05T21:47:56.649Z,99845.19
2022-08-05T21:50:25.664Z,99856.53
2022-08-05T21:52:53.498Z,99852.28
2022-08-05T21:56:00.753Z,99853.13
2022-08-05T21:58:10.228Z,99859.59
2022-08-05T22:00:39.989Z,99853.75
2022-08-05T22:03:10.027Z,99864.13
2022-08-05T22:05:48.600Z,99861.00
2022-08-05T22:08:22.239Z,99868.63
2022-08-05T22:10:51.594Z,99862.53
2022-08-05T22:14:19.511Z,99867.44
2022-08-05T22:16:32.242Z,99863.31
2022-08-05T22:18:58.792Z,99868.53
2022-08-05T22:21:26.322Z,99864.94
2022-08-05T22:24:13.224Z,99859.63
2022-08-05T22:27:17.678Z,99858.97
2022-08-05T22:29:45.931Z,99861.81
2022-08-05T22:32:17.478Z,99861.78
2022-08-05T22:34:45.817Z,99862.41
2022-08-05T22:37:13.140Z,99855.75
2022-08-05T22:39:40.572Z,99858.91
2022-08-05T22:42:12.653Z,99855.81
2022-08-05T22:44:47.093Z,99855.72
2022-08-05T22:47:29.635Z,99858.75
2022-08-05T22:50:20.045Z,99858.94
2022-08-05T22:52:46.269Z,99860.72
2022-08-05T22:57:55.092Z,99854.38
2022-08-05T23:00:23.541Z,99855.69
2022-08-05T23:02:53.243Z,99850.56
2022-08-05T23:05:22.349Z,99857.31
2022-08-05T23:07:51.055Z,99863.06
2022-08-05T23:10:20.832Z,99858.06
2022-08-05T23:12:54.227Z,99852.41
2022-08-05T23:15:26.902Z,99861.31
2022-08-05T23:18:01.458Z,99852.47
2022-08-05T23:20:30.651Z,99858.34
2022-08-05T23:22:58.682Z,99854.78
2022-08-05T23:25:53.524Z,99854.97
2022-08-05T23:28:15.856Z,99853.66
2022-08-05T23:30:53.415Z,99855.81
2022-08-05T23:33:26.322Z,99850.69
2022-08-05T23:36:10.593Z,99849.91
2022-08-05T23:38:38.234Z,99849.53
2022-08-05T23:41:05.747Z,99846.56
2022-08-05T23:44:05.366Z,99843.13
2022-08-05T23:46:22.129Z,99849.03
2022-08-05T23:49:00.213Z,99843.75
2022-08-05T23:52:01.966Z,99847.59
2022-08-05T23:54:36.518Z,99850.75
2022-08-05T23:57:06.362Z,99854.78
2022-08-05T23:59:37.604Z,99855.06
